White Hall, Texas
Current Conditions -  °F | °C
As of 10:35 PM on Monday 20 Oct 2014 (Local Time) from K11R Reporting Station
Clear Clear  
Wind Chill: 67°   Ceiling: Unl
Heat Index: 67°   Visibility: 10mi
Dew Point: 62°   Wind: 0mph
Humidity: 82%   Direction: NA
Pressure: 30.05"   Gusts: NA
Location:  30.367°N, 96.0045°W
Report Text: K11R 210335Z AUTO 00000KT 10SM CLR 20/17 A3005 RMK AO2 T01960165
Loading
Personal Weather Stations






























Interactive Weather Map
Tropical Storm Tracking
New forecast layout! Learn more

10-Day Weather Forecast

Advertisements
Track Severe Weather on mobile